KPSP/PSP METAR and TAF weather

Enter ICAO airport designator
Station Type Date Time Source
KPSP METAR 2019/06/27 03:53 UTC NOAA

KPSP 270353Z 32012G21KT 10SM CLR 31/12 A2981 RMK AO2 SLP090 T03110117


Station Type Date Time Source
KPSP Decoded METAR 2019/06/27 03:53 UTC NOAA

PALM SPRINGS REGIONAL AIRPORT , CA, United States (KPSP) 33-50N 116-30W 135M
Jun 26, 2019 - 11:53 PM EDT / 2019.06.27 0353 UTC
Wind: from the NW (320 degrees) at 14 MPH (12 KT) gusting to 24 MPH (21 KT):0
Visibility: 10 mile(s):0
Sky conditions: clear
Temperature: 88.0 F (31.1 C)
Dew Point: 53.1 F (11.7 C)
Relative Humidity: 30%
Pressure (altimeter): 29.81 in. Hg (1009 hPa)
ob: KPSP 270353Z 32012G21KT 10SM CLR 31/12 A2981 RMK AO2 SLP090 T03110117
cycle: 4

Station Type Date Time Source
KPSP TAF 2019/06/26 18:39 UTC NOAA

TAF KPSP 261736Z 2618/2718 12007KT P6SM SKC
FM262300 33012G24KT P6SM SKC
FM270700 VRB05KT P6SM SKC

Example: see airport list